sensor_id;sensor_type;location;lat;lon;timestamp;temperature;humidity
4874;DHT22;2451;49.970;9.068;2022-09-27T00:00:03;10.70;99.90
4874;DHT22;2451;49.970;9.068;2022-09-27T00:02:29;10.70;99.90
4874;DHT22;2451;49.970;9.068;2022-09-27T00:04:54;10.70;99.90
4874;DHT22;2451;49.970;9.068;2022-09-27T00:07:20;10.70;99.90
4874;DHT22;2451;49.970;9.068;2022-09-27T00:09:46;10.70;99.90
4874;DHT22;2451;49.970;9.068;2022-09-27T00:12:11;10.80;99.90
4874;DHT22;2451;49.970;9.068;2022-09-27T00:14:37;10.80;99.90
4874;DHT22;2451;49.970;9.068;2022-09-27T00:17:02;10.70;99.90
4874;DHT22;2451;49.970;9.068;2022-09-27T00:19:28;10.70;99.90
4874;DHT22;2451;49.970;9.068;2022-09-27T00:21:55;10.80;99.90
4874;DHT22;2451;49.970;9.068;2022-09-27T00:24:21;10.80;99.90
4874;DHT22;2451;49.970;9.068;2022-09-27T00:26:48;10.80;99.90
4874;DHT22;2451;49.970;9.068;2022-09-27T00:29:16;10.80;99.90
4874;DHT22;2451;49.970;9.068;2022-09-27T00:31:42;10.80;99.90
4874;DHT22;2451;49.970;9.068;2022-09-27T00:34:17;10.80;99.90
4874;DHT22;2451;49.970;9.068;2022-09-27T00:36:43;10.80;99.90
4874;DHT22;2451;49.970;9.068;2022-09-27T00:39:09;10.80;99.90
4874;DHT22;2451;49.970;9.068;2022-09-27T00:41:35;10.80;99.90
4874;DHT22;2451;49.970;9.068;2022-09-27T00:44:04;10.80;99.90
4874;DHT22;2451;49.970;9.068;2022-09-27T00:46:34;10.80;99.90
4874;DHT22;2451;49.970;9.068;2022-09-27T00:51:43;10.70;99.90
4874;DHT22;2451;49.970;9.068;2022-09-27T00:54:12;10.80;99.90
4874;DHT22;2451;49.970;9.068;2022-09-27T00:56:39;10.80;99.90
4874;DHT22;2451;49.970;9.068;2022-09-27T00:59:13;10.80;99.90
4874;DHT22;2451;49.970;9.068;2022-09-27T01:01:41;10.80;99.90
4874;DHT22;2451;49.970;9.068;2022-09-27T01:04:09;10.70;99.90
4874;DHT22;2451;49.970;9.068;2022-09-27T01:06:36;10.70;99.90
4874;DHT22;2451;49.970;9.068;2022-09-27T01:09:04;10.80;99.90
4874;DHT22;2451;49.970;9.068;2022-09-27T01:20:28;10.80;99.90
4874;DHT22;2451;49.970;9.068;2022-09-27T01:26:11;10.80;99.90
4874;DHT22;2451;49.970;9.068;2022-09-27T01:31:29;10.70;99.90
4874;DHT22;2451;49.970;9.068;2022-09-27T01:34:25;10.70;99.90
4874;DHT22;2451;49.970;9.068;2022-09-27T01:42:36;10.70;99.90
4874;DHT22;2451;49.970;9.068;2022-09-27T01:45:06;10.70;99.90
4874;DHT22;2451;49.970;9.068;2022-09-27T01:47:44;10.70;99.90
4874;DHT22;2451;49.970;9.068;2022-09-27T01:50:15;10.70;99.90
4874;DHT22;2451;49.970;9.068;2022-09-27T01:53:02;10.70;99.90
4874;DHT22;2451;49.970;9.068;2022-09-27T01:55:32;10.60;99.90
4874;DHT22;2451;49.970;9.068;2022-09-27T01:58:32;10.60;99.90
4874;DHT22;2451;49.970;9.068;2022-09-27T02:00:56;10.60;99.90
4874;DHT22;2451;49.970;9.068;2022-09-27T02:03:34;10.60;99.90
4874;DHT22;2451;49.970;9.068;2022-09-27T02:06:06;10.60;99.90
4874;DHT22;2451;49.970;9.068;2022-09-27T02:08:44;10.70;99.90
4874;DHT22;2451;49.970;9.068;2022-09-27T02:11:12;10.60;99.90
4874;DHT22;2451;49.970;9.068;2022-09-27T02:16:41;10.60;99.90
4874;DHT22;2451;49.970;9.068;2022-09-27T02:22:16;10.60;99.90
4874;DHT22;2451;49.970;9.068;2022-09-27T02:27:28;10.60;99.90
4874;DHT22;2451;49.970;9.068;2022-09-27T02:30:06;10.60;99.90
4874;DHT22;2451;49.970;9.068;2022-09-27T02:32:33;10.60;99.90
4874;DHT22;2451;49.970;9.068;2022-09-27T02:35:01;10.60;99.90
4874;DHT22;2451;49.970;9.068;2022-09-27T02:37:28;10.60;99.90
4874;DHT22;2451;49.970;9.068;2022-09-27T02:39:54;10.60;99.90
4874;DHT22;2451;49.970;9.068;2022-09-27T02:42:20;10.60;99.90
4874;DHT22;2451;49.970;9.068;2022-09-27T02:44:45;10.60;99.90
4874;DHT22;2451;49.970;9.068;2022-09-27T02:56:00;10.50;99.90
4874;DHT22;2451;49.970;9.068;2022-09-27T03:01:48;10.50;99.90
4874;DHT22;2451;49.970;9.068;2022-09-27T03:04:24;10.40;99.90
4874;DHT22;2451;49.970;9.068;2022-09-27T03:06:55;10.40;99.90
4874;DHT22;2451;49.970;9.068;2022-09-27T03:09:27;10.40;99.90
4874;DHT22;2451;49.970;9.068;2022-09-27T03:11:53;10.40;99.90
4874;DHT22;2451;49.970;9.068;2022-09-27T03:14:18;10.40;99.90
4874;DHT22;2451;49.970;9.068;2022-09-27T03:16:44;10.40;99.90
4874;DHT22;2451;49.970;9.068;2022-09-27T03:19:09;10.40;99.90
4874;DHT22;2451;49.970;9.068;2022-09-27T03:21:35;10.40;99.90
4874;DHT22;2451;49.970;9.068;2022-09-27T03:24:01;10.40;99.90
4874;DHT22;2451;49.970;9.068;2022-09-27T03:26:27;10.30;99.90
4874;DHT22;2451;49.970;9.068;2022-09-27T03:28:53;10.30;99.90
4874;DHT22;2451;49.970;9.068;2022-09-27T03:31:18;10.30;99.90
4874;DHT22;2451;49.970;9.068;2022-09-27T03:33:44;10.30;99.90
4874;DHT22;2451;49.970;9.068;2022-09-27T03:36:09;10.30;99.90
4874;DHT22;2451;49.970;9.068;2022-09-27T03:38:36;10.30;99.90
4874;DHT22;2451;49.970;9.068;2022-09-27T03:41:02;10.30;99.90
4874;DHT22;2451;49.970;9.068;2022-09-27T03:43:27;10.30;99.90
4874;DHT22;2451;49.970;9.068;2022-09-27T03:45:53;10.30;99.90
4874;DHT22;2451;49.970;9.068;2022-09-27T03:48:19;10.30;99.90
4874;DHT22;2451;49.970;9.068;2022-09-27T03:50:45;10.30;99.90
4874;DHT22;2451;49.970;9.068;2022-09-27T03:53:10;10.30;99.90
4874;DHT22;2451;49.970;9.068;2022-09-27T03:55:36;10.40;99.90
4874;DHT22;2451;49.970;9.068;2022-09-27T03:58:01;10.40;99.90
4874;DHT22;2451;49.970;9.068;2022-09-27T04:00:27;10.40;99.90
4874;DHT22;2451;49.970;9.068;2022-09-27T04:02:53;10.40;99.90
4874;DHT22;2451;49.970;9.068;2022-09-27T04:05:18;10.40;99.90
4874;DHT22;2451;49.970;9.068;2022-09-27T04:07:47;10.30;99.90
4874;DHT22;2451;49.970;9.068;2022-09-27T04:10:13;10.30;99.90
4874;DHT22;2451;49.970;9.068;2022-09-27T04:12:39;10.30;99.90
4874;DHT22;2451;49.970;9.068;2022-09-27T04:15:05;10.30;99.90
4874;DHT22;2451;49.970;9.068;2022-09-27T04:17:33;10.30;99.90
4874;DHT22;2451;49.970;9.068;2022-09-27T04:19:58;10.30;99.90
4874;DHT22;2451;49.970;9.068;2022-09-27T04:22:24;10.20;99.90
4874;DHT22;2451;49.970;9.068;2022-09-27T04:24:50;10.20;99.90
4874;DHT22;2451;49.970;9.068;2022-09-27T04:27:16;10.10;99.90
4874;DHT22;2451;49.970;9.068;2022-09-27T04:29:41;10.10;99.90
4874;DHT22;2451;49.970;9.068;2022-09-27T04:32:10;10.10;99.90
4874;DHT22;2451;49.970;9.068;2022-09-27T04:34:36;10.10;99.90
4874;DHT22;2451;49.970;9.068;2022-09-27T04:37:20;10.10;99.90
4874;DHT22;2451;49.970;9.068;2022-09-27T04:39:46;10.10;99.90
4874;DHT22;2451;49.970;9.068;2022-09-27T04:42:14;10.10;99.90
4874;DHT22;2451;49.970;9.068;2022-09-27T04:44:39;10.10;99.90
4874;DHT22;2451;49.970;9.068;2022-09-27T04:47:05;10.00;99.90
4874;DHT22;2451;49.970;9.068;2022-09-27T04:49:30;9.90;99.90
4874;DHT22;2451;49.970;9.068;2022-09-27T04:51:56;9.90;99.90
4874;DHT22;2451;49.970;9.068;2022-09-27T04:54:22;9.90;99.90
4874;DHT22;2451;49.970;9.068;2022-09-27T04:56:47;9.90;99.90
4874;DHT22;2451;49.970;9.068;2022-09-27T04:59:13;9.90;99.90
4874;DHT22;2451;49.970;9.068;2022-09-27T05:01:39;9.80;99.90
4874;DHT22;2451;49.970;9.068;2022-09-27T05:04:05;9.80;99.90
4874;DHT22;2451;49.970;9.068;2022-09-27T05:06:30;9.80;99.90
4874;DHT22;2451;49.970;9.068;2022-09-27T05:08:56;9.80;99.90
4874;DHT22;2451;49.970;9.068;2022-09-27T05:11:23;9.80;99.90
4874;DHT22;2451;49.970;9.068;2022-09-27T05:13:48;9.70;99.90
4874;DHT22;2451;49.970;9.068;2022-09-27T05:16:14;9.70;99.90
4874;DHT22;2451;49.970;9.068;2022-09-27T05:18:40;9.70;99.90
4874;DHT22;2451;49.970;9.068;2022-09-27T05:21:06;9.70;99.90
4874;DHT22;2451;49.970;9.068;2022-09-27T05:23:31;9.60;99.90
4874;DHT22;2451;49.970;9.068;2022-09-27T05:25:57;9.70;99.90
4874;DHT22;2451;49.970;9.068;2022-09-27T05:28:22;9.60;99.90
4874;DHT22;2451;49.970;9.068;2022-09-27T05:30:51;9.60;99.90
4874;DHT22;2451;49.970;9.068;2022-09-27T05:33:16;9.60;99.90
4874;DHT22;2451;49.970;9.068;2022-09-27T05:35:49;9.60;99.90
4874;DHT22;2451;49.970;9.068;2022-09-27T05:38:15;9.60;99.90
4874;DHT22;2451;49.970;9.068;2022-09-27T05:40:41;9.60;99.90
4874;DHT22;2451;49.970;9.068;2022-09-27T05:43:08;9.60;99.90
4874;DHT22;2451;49.970;9.068;2022-09-27T05:45:34;9.60;99.90
4874;DHT22;2451;49.970;9.068;2022-09-27T05:48:00;9.60;99.90
4874;DHT22;2451;49.970;9.068;2022-09-27T05:50:26;9.60;99.90
4874;DHT22;2451;49.970;9.068;2022-09-27T05:52:52;9.60;99.90
4874;DHT22;2451;49.970;9.068;2022-09-27T05:55:18;9.60;99.90
4874;DHT22;2451;49.970;9.068;2022-09-27T05:57:54;9.60;99.90
4874;DHT22;2451;49.970;9.068;2022-09-27T06:00:20;9.60;99.90
4874;DHT22;2451;49.970;9.068;2022-09-27T06:02:52;9.60;99.90
4874;DHT22;2451;49.970;9.068;2022-09-27T06:05:19;9.60;99.90
4874;DHT22;2451;49.970;9.068;2022-09-27T06:07:45;9.60;99.90
4874;DHT22;2451;49.970;9.068;2022-09-27T06:10:14;9.60;99.90
4874;DHT22;2451;49.970;9.068;2022-09-27T06:12:40;9.60;99.90
4874;DHT22;2451;49.970;9.068;2022-09-27T06:15:06;9.60;99.90
4874;DHT22;2451;49.970;9.068;2022-09-27T06:17:35;9.70;99.90
4874;DHT22;2451;49.970;9.068;2022-09-27T06:20:01;9.70;99.90
4874;DHT22;2451;49.970;9.068;2022-09-27T06:22:27;9.70;99.90
4874;DHT22;2451;49.970;9.068;2022-09-27T06:24:53;9.70;99.90
4874;DHT22;2451;49.970;9.068;2022-09-27T06:27:18;9.80;99.90
4874;DHT22;2451;49.970;9.068;2022-09-27T06:29:44;9.80;99.90
4874;DHT22;2451;49.970;9.068;2022-09-27T06:32:09;9.80;99.90
4874;DHT22;2451;49.970;9.068;2022-09-27T06:34:35;9.80;99.90
4874;DHT22;2451;49.970;9.068;2022-09-27T06:37:01;9.80;99.90
4874;DHT22;2451;49.970;9.068;2022-09-27T06:39:27;9.80;99.90
4874;DHT22;2451;49.970;9.068;2022-09-27T06:41:54;9.80;99.90
4874;DHT22;2451;49.970;9.068;2022-09-27T06:44:22;9.90;99.90
4874;DHT22;2451;49.970;9.068;2022-09-27T06:46:49;9.90;99.90
4874;DHT22;2451;49.970;9.068;2022-09-27T06:49:15;10.00;99.90
4874;DHT22;2451;49.970;9.068;2022-09-27T06:51:40;10.00;99.90
4874;DHT22;2451;49.970;9.068;2022-09-27T06:54:07;10.00;99.90
4874;DHT22;2451;49.970;9.068;2022-09-27T06:56:32;10.00;99.90
4874;DHT22;2451;49.970;9.068;2022-09-27T06:58:58;10.00;99.90
4874;DHT22;2451;49.970;9.068;2022-09-27T07:01:43;10.10;99.90
4874;DHT22;2451;49.970;9.068;2022-09-27T07:04:10;10.10;99.90
4874;DHT22;2451;49.970;9.068;2022-09-27T07:06:36;10.10;99.90
4874;DHT22;2451;49.970;9.068;2022-09-27T07:09:02;10.10;99.90
4874;DHT22;2451;49.970;9.068;2022-09-27T07:11:27;10.10;99.90
4874;DHT22;2451;49.970;9.068;2022-09-27T07:13:53;10.20;99.90
4874;DHT22;2451;49.970;9.068;2022-09-27T07:16:20;10.20;99.90
4874;DHT22;2451;49.970;9.068;2022-09-27T07:18:48;10.20;99.90
4874;DHT22;2451;49.970;9.068;2022-09-27T07:21:14;10.20;99.90
4874;DHT22;2451;49.970;9.068;2022-09-27T07:23:40;10.30;99.90
4874;DHT22;2451;49.970;9.068;2022-09-27T07:26:06;10.30;99.90
4874;DHT22;2451;49.970;9.068;2022-09-27T07:28:33;10.30;99.90
4874;DHT22;2451;49.970;9.068;2022-09-27T07:30:59;10.30;99.90
4874;DHT22;2451;49.970;9.068;2022-09-27T07:33:25;10.30;99.90
4874;DHT22;2451;49.970;9.068;2022-09-27T07:35:50;10.30;99.90
4874;DHT22;2451;49.970;9.068;2022-09-27T07:38:16;10.30;99.90
4874;DHT22;2451;49.970;9.068;2022-09-27T07:40:42;10.40;99.90
4874;DHT22;2451;49.970;9.068;2022-09-27T07:43:07;10.30;99.90
4874;DHT22;2451;49.970;9.068;2022-09-27T07:45:37;10.40;99.90
4874;DHT22;2451;49.970;9.068;2022-09-27T07:48:06;10.40;99.90
4874;DHT22;2451;49.970;9.068;2022-09-27T07:50:33;10.40;99.90
4874;DHT22;2451;49.970;9.068;2022-09-27T07:52:58;10.50;99.90
4874;DHT22;2451;49.970;9.068;2022-09-27T07:55:24;10.60;99.90
4874;DHT22;2451;49.970;9.068;2022-09-27T07:57:49;10.60;99.90
4874;DHT22;2451;49.970;9.068;2022-09-27T08:00:19;10.70;99.90
4874;DHT22;2451;49.970;9.068;2022-09-27T08:02:45;10.70;99.90
4874;DHT22;2451;49.970;9.068;2022-09-27T08:05:12;10.70;99.90
4874;DHT22;2451;49.970;9.068;2022-09-27T08:07:38;10.70;99.90
4874;DHT22;2451;49.970;9.068;2022-09-27T08:10:05;10.70;99.90
4874;DHT22;2451;49.970;9.068;2022-09-27T08:12:31;10.90;99.90
4874;DHT22;2451;49.970;9.068;2022-09-27T08:14:56;11.10;99.90
4874;DHT22;2451;49.970;9.068;2022-09-27T08:17:26;11.20;99.90
4874;DHT22;2451;49.970;9.068;2022-09-27T08:19:51;11.40;99.90
4874;DHT22;2451;49.970;9.068;2022-09-27T08:22:17;11.40;99.90
4874;DHT22;2451;49.970;9.068;2022-09-27T08:24:45;11.30;99.90
4874;DHT22;2451;49.970;9.068;2022-09-27T08:27:11;11.30;99.90
4874;DHT22;2451;49.970;9.068;2022-09-27T08:29:37;11.30;99.90
4874;DHT22;2451;49.970;9.068;2022-09-27T08:32:07;11.30;99.90
4874;DHT22;2451;49.970;9.068;2022-09-27T08:34:32;11.50;99.90
4874;DHT22;2451;49.970;9.068;2022-09-27T08:36:58;11.70;99.90
4874;DHT22;2451;49.970;9.068;2022-09-27T08:39:24;11.90;99.90
4874;DHT22;2451;49.970;9.068;2022-09-27T08:44:46;12.20;99.90
4874;DHT22;2451;49.970;9.068;2022-09-27T08:47:23;12.20;99.90
4874;DHT22;2451;49.970;9.068;2022-09-27T08:52:30;12.40;99.90
4874;DHT22;2451;49.970;9.068;2022-09-27T08:54:57;12.40;99.90
4874;DHT22;2451;49.970;9.068;2022-09-27T08:57:25;12.30;99.90
4874;DHT22;2451;49.970;9.068;2022-09-27T09:00:00;12.20;99.90
4874;DHT22;2451;49.970;9.068;2022-09-27T09:02:26;12.20;99.90
4874;DHT22;2451;49.970;9.068;2022-09-27T09:05:07;12.10;99.90
4874;DHT22;2451;49.970;9.068;2022-09-27T09:10:21;12.40;99.90
4874;DHT22;2451;49.970;9.068;2022-09-27T09:21:58;13.00;99.90
4874;DHT22;2451;49.970;9.068;2022-09-27T09:25:08;13.20;99.90
4874;DHT22;2451;49.970;9.068;2022-09-27T09:33:33;13.40;99.90
4874;DHT22;2451;49.970;9.068;2022-09-27T09:36:08;13.60;99.90
4874;DHT22;2451;49.970;9.068;2022-09-27T09:38:50;13.80;99.90
4874;DHT22;2451;49.970;9.068;2022-09-27T09:41:27;14.20;99.90
4874;DHT22;2451;49.970;9.068;2022-09-27T09:44:09;14.50;99.90
4874;DHT22;2451;49.970;9.068;2022-09-27T09:46:40;15.00;99.90
4874;DHT22;2451;49.970;9.068;2022-09-27T09:49:19;15.50;99.90
4874;DHT22;2451;49.970;9.068;2022-09-27T09:51:50;15.70;99.90
4874;DHT22;2451;49.970;9.068;2022-09-27T09:54:28;15.90;99.90
4874;DHT22;2451;49.970;9.068;2022-09-27T09:57:03;15.90;99.90
4874;DHT22;2451;49.970;9.068;2022-09-27T09:59:43;15.80;99.90
4874;DHT22;2451;49.970;9.068;2022-09-27T10:02:14;15.40;99.90
4874;DHT22;2451;49.970;9.068;2022-09-27T10:04:41;15.20;99.90
4874;DHT22;2451;49.970;9.068;2022-09-27T10:07:07;14.70;99.90
4874;DHT22;2451;49.970;9.068;2022-09-27T10:09:34;14.60;99.90
4874;DHT22;2451;49.970;9.068;2022-09-27T10:12:00;14.50;99.90
4874;DHT22;2451;49.970;9.068;2022-09-27T10:14:26;14.40;99.90
4874;DHT22;2451;49.970;9.068;2022-09-27T10:16:58;14.40;99.90
4874;DHT22;2451;49.970;9.068;2022-09-27T10:19:29;14.50;99.90
4874;DHT22;2451;49.970;9.068;2022-09-27T10:22:11;14.50;99.90
4874;DHT22;2451;49.970;9.068;2022-09-27T10:25:09;14.40;99.90
4874;DHT22;2451;49.970;9.068;2022-09-27T10:27:41;14.00;99.90
4874;DHT22;2451;49.970;9.068;2022-09-27T10:30:25;13.70;99.90
4874;DHT22;2451;49.970;9.068;2022-09-27T10:32:53;13.50;99.90
4874;DHT22;2451;49.970;9.068;2022-09-27T10:35:39;13.20;99.90
4874;DHT22;2451;49.970;9.068;2022-09-27T10:40:44;12.90;99.90
4874;DHT22;2451;49.970;9.068;2022-09-27T10:45:50;12.70;99.90
4874;DHT22;2451;49.970;9.068;2022-09-27T10:48:23;12.60;99.90
4874;DHT22;2451;49.970;9.068;2022-09-27T10:51:21;12.60;99.90
4874;DHT22;2451;49.970;9.068;2022-09-27T10:53:46;12.60;99.90
4874;DHT22;2451;49.970;9.068;2022-09-27T10:56:33;12.60;99.90
4874;DHT22;2451;49.970;9.068;2022-09-27T10:58:59;12.70;99.90
4874;DHT22;2451;49.970;9.068;2022-09-27T11:01:38;13.20;99.90
4874;DHT22;2451;49.970;9.068;2022-09-27T11:04:05;13.70;99.90
4874;DHT22;2451;49.970;9.068;2022-09-27T11:06:31;14.00;99.90
4874;DHT22;2451;49.970;9.068;2022-09-27T11:09:20;14.30;99.90
4874;DHT22;2451;49.970;9.068;2022-09-27T11:11:49;14.70;99.90
4874;DHT22;2451;49.970;9.068;2022-09-27T11:14:19;15.20;99.90
4874;DHT22;2451;49.970;9.068;2022-09-27T11:17:18;15.70;99.90
4874;DHT22;2451;49.970;9.068;2022-09-27T11:22:40;16.80;99.90
4874;DHT22;2451;49.970;9.068;2022-09-27T11:27:52;16.30;99.90
4874;DHT22;2451;49.970;9.068;2022-09-27T11:30:22;15.70;99.90
4874;DHT22;2451;49.970;9.068;2022-09-27T11:32:58;15.10;99.90
4874;DHT22;2451;49.970;9.068;2022-09-27T11:35:28;14.20;99.90
4874;DHT22;2451;49.970;9.068;2022-09-27T11:38:27;13.70;99.90
4874;DHT22;2451;49.970;9.068;2022-09-27T11:44:09;13.10;99.90
4874;DHT22;2451;49.970;9.068;2022-09-27T11:46:38;13.00;99.90
4874;DHT22;2451;49.970;9.068;2022-09-27T11:52:58;12.90;99.90
4874;DHT22;2451;49.970;9.068;2022-09-27T11:58:57;13.10;99.90
4874;DHT22;2451;49.970;9.068;2022-09-27T12:01:50;13.20;99.90
4874;DHT22;2451;49.970;9.068;2022-09-27T12:05:20;13.40;99.90
4874;DHT22;2451;49.970;9.068;2022-09-27T12:10:06;13.70;99.90
4874;DHT22;2451;49.970;9.068;2022-09-27T12:12:35;13.70;99.90
4874;DHT22;2451;49.970;9.068;2022-09-27T12:17:43;13.80;99.90
4874;DHT22;2451;49.970;9.068;2022-09-27T12:20:24;13.80;99.90
4874;DHT22;2451;49.970;9.068;2022-09-27T12:22:57;13.70;99.90
4874;DHT22;2451;49.970;9.068;2022-09-27T12:25:30;13.70;99.90
4874;DHT22;2451;49.970;9.068;2022-09-27T12:30:28;13.70;99.90
4874;DHT22;2451;49.970;9.068;2022-09-27T12:33:09;13.70;99.90
4874;DHT22;2451;49.970;9.068;2022-09-27T12:35:53;13.90;99.90
4874;DHT22;2451;49.970;9.068;2022-09-27T12:38:40;14.10;99.90
4874;DHT22;2451;49.970;9.068;2022-09-27T12:41:10;14.10;99.90
4874;DHT22;2451;49.970;9.068;2022-09-27T12:43:44;14.10;99.90
4874;DHT22;2451;49.970;9.068;2022-09-27T12:46:34;14.00;99.90
4874;DHT22;2451;49.970;9.068;2022-09-27T12:51:38;13.90;99.90
4874;DHT22;2451;49.970;9.068;2022-09-27T12:56:50;13.60;99.90
4874;DHT22;2451;49.970;9.068;2022-09-27T12:59:29;13.60;99.90
4874;DHT22;2451;49.970;9.068;2022-09-27T13:13:57;13.20;99.90
4874;DHT22;2451;49.970;9.068;2022-09-27T13:16:24;13.10;99.90
4874;DHT22;2451;49.970;9.068;2022-09-27T13:18:55;13.00;99.90
4874;DHT22;2451;49.970;9.068;2022-09-27T13:24:42;12.80;99.90
4874;DHT22;2451;49.970;9.068;2022-09-27T13:35:34;11.90;99.90
4874;DHT22;2451;49.970;9.068;2022-09-27T13:38:01;11.60;99.90
4874;DHT22;2451;49.970;9.068;2022-09-27T13:40:34;11.40;99.90
4874;DHT22;2451;49.970;9.068;2022-09-27T13:45:51;11.40;99.90
4874;DHT22;2451;49.970;9.068;2022-09-27T13:48:29;11.40;99.90
4874;DHT22;2451;49.970;9.068;2022-09-27T13:51:15;11.50;99.90
4874;DHT22;2451;49.970;9.068;2022-09-27T13:53:53;11.70;99.90
4874;DHT22;2451;49.970;9.068;2022-09-27T13:59:08;11.90;99.90
4874;DHT22;2451;49.970;9.068;2022-09-27T14:01:46;12.00;99.90
4874;DHT22;2451;49.970;9.068;2022-09-27T14:04:27;11.80;99.90
4874;DHT22;2451;49.970;9.068;2022-09-27T14:06:57;11.80;99.90
4874;DHT22;2451;49.970;9.068;2022-09-27T14:09:37;11.80;99.90
4874;DHT22;2451;49.970;9.068;2022-09-27T14:12:11;11.70;99.90
4874;DHT22;2451;49.970;9.068;2022-09-27T14:14:40;11.70;99.90
4874;DHT22;2451;49.970;9.068;2022-09-27T14:17:07;11.80;99.90
4874;DHT22;2451;49.970;9.068;2022-09-27T14:19:39;11.90;99.90
4874;DHT22;2451;49.970;9.068;2022-09-27T14:22:14;11.90;99.90
4874;DHT22;2451;49.970;9.068;2022-09-27T14:27:10;11.90;99.90
4874;DHT22;2451;49.970;9.068;2022-09-27T14:29:54;12.00;99.90
4874;DHT22;2451;49.970;9.068;2022-09-27T14:32:44;12.10;99.90
4874;DHT22;2451;49.970;9.068;2022-09-27T14:35:24;12.00;99.90
4874;DHT22;2451;49.970;9.068;2022-09-27T14:38:14;12.10;99.90
4874;DHT22;2451;49.970;9.068;2022-09-27T14:40:54;12.10;99.90
4874;DHT22;2451;49.970;9.068;2022-09-27T14:43:22;12.20;99.90
4874;DHT22;2451;49.970;9.068;2022-09-27T14:45:50;12.30;99.90
4874;DHT22;2451;49.970;9.068;2022-09-27T14:50:53;12.30;99.90
4874;DHT22;2451;49.970;9.068;2022-09-27T14:53:22;12.30;99.90
4874;DHT22;2451;49.970;9.068;2022-09-27T14:55:49;12.40;99.90
4874;DHT22;2451;49.970;9.068;2022-09-27T14:58:14;12.40;99.90
4874;DHT22;2451;49.970;9.068;2022-09-27T15:00:45;12.40;99.90
4874;DHT22;2451;49.970;9.068;2022-09-27T15:03:16;12.40;99.90
4874;DHT22;2451;49.970;9.068;2022-09-27T15:05:44;12.40;99.90
4874;DHT22;2451;49.970;9.068;2022-09-27T15:08:10;12.30;99.90
4874;DHT22;2451;49.970;9.068;2022-09-27T15:10:37;12.30;99.90
4874;DHT22;2451;49.970;9.068;2022-09-27T15:13:04;12.30;99.90
4874;DHT22;2451;49.970;9.068;2022-09-27T15:15:35;12.30;99.90
4874;DHT22;2451;49.970;9.068;2022-09-27T15:18:22;12.30;99.90
4874;DHT22;2451;49.970;9.068;2022-09-27T15:20:52;12.30;99.90
4874;DHT22;2451;49.970;9.068;2022-09-27T15:23:25;12.30;99.90
4874;DHT22;2451;49.970;9.068;2022-09-27T15:26:21;12.30;99.90
4874;DHT22;2451;49.970;9.068;2022-09-27T15:28:50;12.30;99.90
4874;DHT22;2451;49.970;9.068;2022-09-27T15:31:17;12.30;99.90
4874;DHT22;2451;49.970;9.068;2022-09-27T15:33:52;12.30;99.90
4874;DHT22;2451;49.970;9.068;2022-09-27T15:36:49;12.20;99.90
4874;DHT22;2451;49.970;9.068;2022-09-27T15:39:24;12.20;99.90
4874;DHT22;2451;49.970;9.068;2022-09-27T15:44:55;12.10;99.90
4874;DHT22;2451;49.970;9.068;2022-09-27T15:49:57;11.90;99.90
4874;DHT22;2451;49.970;9.068;2022-09-27T15:52:43;11.90;99.90
4874;DHT22;2451;49.970;9.068;2022-09-27T15:55:16;11.80;99.90
4874;DHT22;2451;49.970;9.068;2022-09-27T15:57:44;11.80;99.90
4874;DHT22;2451;49.970;9.068;2022-09-27T16:00:13;11.80;99.90
4874;DHT22;2451;49.970;9.068;2022-09-27T16:02:41;11.70;99.90
4874;DHT22;2451;49.970;9.068;2022-09-27T16:05:07;11.70;99.90
4874;DHT22;2451;49.970;9.068;2022-09-27T16:07:32;11.70;99.90
4874;DHT22;2451;49.970;9.068;2022-09-27T16:09:58;11.70;99.90
4874;DHT22;2451;49.970;9.068;2022-09-27T16:12:23;11.60;99.90
4874;DHT22;2451;49.970;9.068;2022-09-27T16:14:49;11.60;99.90
4874;DHT22;2451;49.970;9.068;2022-09-27T16:17:15;11.60;99.90
4874;DHT22;2451;49.970;9.068;2022-09-27T16:19:40;11.50;99.90
4874;DHT22;2451;49.970;9.068;2022-09-27T16:22:06;11.50;99.90
4874;DHT22;2451;49.970;9.068;2022-09-27T16:24:32;11.40;99.90
4874;DHT22;2451;49.970;9.068;2022-09-27T16:26:57;11.40;99.90
4874;DHT22;2451;49.970;9.068;2022-09-27T16:29:23;11.30;99.90
4874;DHT22;2451;49.970;9.068;2022-09-27T16:31:49;11.30;99.90
4874;DHT22;2451;49.970;9.068;2022-09-27T16:34:15;11.10;99.90
4874;DHT22;2451;49.970;9.068;2022-09-27T16:36:41;11.10;99.90
4874;DHT22;2451;49.970;9.068;2022-09-27T16:39:09;11.00;99.90
4874;DHT22;2451;49.970;9.068;2022-09-27T16:41:37;11.00;99.90
4874;DHT22;2451;49.970;9.068;2022-09-27T16:44:07;10.90;99.90
4874;DHT22;2451;49.970;9.068;2022-09-27T16:46:33;10.80;99.90
4874;DHT22;2451;49.970;9.068;2022-09-27T16:48:59;10.80;99.90
4874;DHT22;2451;49.970;9.068;2022-09-27T16:51:25;10.70;99.90
4874;DHT22;2451;49.970;9.068;2022-09-27T16:54:09;10.60;99.90
4874;DHT22;2451;49.970;9.068;2022-09-27T16:56:35;10.60;99.90
4874;DHT22;2451;49.970;9.068;2022-09-27T16:59:02;10.50;99.90
4874;DHT22;2451;49.970;9.068;2022-09-27T17:01:29;10.50;99.90
4874;DHT22;2451;49.970;9.068;2022-09-27T17:03:55;10.40;99.90
4874;DHT22;2451;49.970;9.068;2022-09-27T17:06:22;10.30;99.90
4874;DHT22;2451;49.970;9.068;2022-09-27T17:08:48;10.30;99.90
4874;DHT22;2451;49.970;9.068;2022-09-27T17:11:15;10.30;99.90
4874;DHT22;2451;49.970;9.068;2022-09-27T17:13:42;10.20;99.90
4874;DHT22;2451;49.970;9.068;2022-09-27T17:16:09;10.10;99.90
4874;DHT22;2451;49.970;9.068;2022-09-27T17:18:36;10.10;99.90
4874;DHT22;2451;49.970;9.068;2022-09-27T17:21:03;10.10;99.90
4874;DHT22;2451;49.970;9.068;2022-09-27T17:23:30;10.00;99.90
4874;DHT22;2451;49.970;9.068;2022-09-27T17:26:04;10.00;99.90
4874;DHT22;2451;49.970;9.068;2022-09-27T17:28:31;10.10;99.90
4874;DHT22;2451;49.970;9.068;2022-09-27T17:31:05;10.00;99.90
4874;DHT22;2451;49.970;9.068;2022-09-27T17:33:34;10.00;99.90
4874;DHT22;2451;49.970;9.068;2022-09-27T17:36:06;10.00;99.90
4874;DHT22;2451;49.970;9.068;2022-09-27T17:38:33;10.00;99.90
4874;DHT22;2451;49.970;9.068;2022-09-27T17:41:00;10.00;99.90
4874;DHT22;2451;49.970;9.068;2022-09-27T17:43:26;10.10;99.90
4874;DHT22;2451;49.970;9.068;2022-09-27T17:45:51;10.10;99.90
4874;DHT22;2451;49.970;9.068;2022-09-27T17:48:17;10.10;99.90
4874;DHT22;2451;49.970;9.068;2022-09-27T17:51:01;10.10;99.90
4874;DHT22;2451;49.970;9.068;2022-09-27T17:53:28;10.10;99.90
4874;DHT22;2451;49.970;9.068;2022-09-27T17:55:59;10.10;99.90
4874;DHT22;2451;49.970;9.068;2022-09-27T17:58:25;10.10;99.90
4874;DHT22;2451;49.970;9.068;2022-09-27T18:00:51;10.10;99.90
4874;DHT22;2451;49.970;9.068;2022-09-27T18:03:16;10.10;99.90
4874;DHT22;2451;49.970;9.068;2022-09-27T18:05:42;10.10;99.90
4874;DHT22;2451;49.970;9.068;2022-09-27T18:08:08;10.10;99.90
4874;DHT22;2451;49.970;9.068;2022-09-27T18:10:33;10.10;99.90
4874;DHT22;2451;49.970;9.068;2022-09-27T18:12:59;10.10;99.90
4874;DHT22;2451;49.970;9.068;2022-09-27T18:15:25;10.20;99.90
4874;DHT22;2451;49.970;9.068;2022-09-27T18:17:50;10.20;99.90
4874;DHT22;2451;49.970;9.068;2022-09-27T18:20:16;10.20;99.90
4874;DHT22;2451;49.970;9.068;2022-09-27T18:22:42;10.20;99.90
4874;DHT22;2451;49.970;9.068;2022-09-27T18:25:08;10.20;99.90
4874;DHT22;2451;49.970;9.068;2022-09-27T18:27:33;10.20;99.90
4874;DHT22;2451;49.970;9.068;2022-09-27T18:29:59;10.30;99.90
4874;DHT22;2451;49.970;9.068;2022-09-27T18:32:27;10.20;99.90
4874;DHT22;2451;49.970;9.068;2022-09-27T18:34:53;10.20;99.90
4874;DHT22;2451;49.970;9.068;2022-09-27T18:37:18;10.10;99.90
4874;DHT22;2451;49.970;9.068;2022-09-27T18:39:44;10.10;99.90
4874;DHT22;2451;49.970;9.068;2022-09-27T18:42:09;10.10;99.90